TimeEDT,TemperatureF,Dew PointF,Humidity,Sea Level PressureIn,VisibilityMPH,Wind Direction,Wind SpeedMPH,Gust SpeedMPH,PrecipitationIn,Events,Conditions,WindDirDegrees,DateUTC
12:15 AM,54.0,43.7,68,30.28,10.0,SSE,4.6,-,N/A,,Clear,160,2013-04-26 04:15:00
12:35 AM,53.1,44.6,73,30.29,10.0,SSE,5.8,-,N/A,,Clear,160,2013-04-26 04:35:00
12:55 AM,52.9,45.5,76,30.29,10.0,Calm,Calm,-,N/A,,Clear,0,2013-04-26 04:55:00
1:15 AM,52.5,45.5,77,30.30,10.0,Calm,Calm,-,N/A,,Clear,0,2013-04-26 05:15:00
1:35 AM,51.1,45.5,81,30.30,10.0,Calm,Calm,-,N/A,,Clear,0,2013-04-26 05:35:00
1:55 AM,49.3,45.1,86,30.30,10.0,Calm,Calm,-,N/A,,Clear,0,2013-04-26 05:55:00
2:15 AM,48.0,45.0,89,30.30,10.0,Calm,Calm,-,N/A,,Clear,0,2013-04-26 06:15:00
2:35 AM,47.5,44.4,89,30.32,10.0,NNW,6.9,-,N/A,,Clear,330,2013-04-26 06:35:00
2:55 AM,48.4,45.5,90,30.32,10.0,Calm,Calm,-,N/A,,Scattered Clouds,0,2013-04-26 06:55:00
3:15 AM,47.5,45.1,92,30.32,10.0,Calm,Calm,-,N/A,,Scattered Clouds,0,2013-04-26 07:15:00
3:35 AM,46.8,44.8,93,30.31,10.0,Calm,Calm,-,N/A,,Clear,0,2013-04-26 07:35:00
3:55 AM,46.4,44.8,94,30.31,7.0,Calm,Calm,-,N/A,,Clear,0,2013-04-26 07:55:00
4:15 AM,46.0,44.6,95,30.32,5.0,Calm,Calm,-,N/A,,Clear,0,2013-04-26 08:15:00
4:35 AM,45.3,43.9,95,30.32,1.2,Calm,Calm,-,N/A,,Mist,0,2013-04-26 08:35:00
4:55 AM,44.6,43.0,94,30.33,2.5,Calm,Calm,-,N/A,,Clear,0,2013-04-26 08:55:00
5:15 AM,42.1,40.8,95,30.33,1.8,Calm,Calm,-,N/A,,Mist,0,2013-04-26 09:15:00
5:35 AM,41.9,40.5,95,30.33,5.0,Calm,Calm,-,N/A,,Clear,0,2013-04-26 09:35:00
5:55 AM,42.8,41.4,95,30.35,0.2,Calm,Calm,-,N/A,Fog,Fog,0,2013-04-26 09:55:00
6:15 AM,41.2,40.1,96,30.35,0.8,Calm,Calm,-,N/A,,Mist,0,2013-04-26 10:15:00
6:35 AM,40.5,39.4,96,30.36,7.0,Calm,Calm,-,N/A,,Clear,0,2013-04-26 10:35:00
6:55 AM,41.0,39.9,96,30.37,10.0,Calm,Calm,-,N/A,,Clear,0,2013-04-26 10:55:00
7:15 AM,42.8,41.4,95,30.37,10.0,Calm,Calm,-,N/A,,Clear,0,2013-04-26 11:15:00
7:55 AM,47.3,41.7,81,30.39,10.0,North,3.5,-,N/A,,Clear,360,2013-04-26 11:55:00
8:15 AM,49.5,41.0,73,30.40,10.0,North,3.5,-,N/A,,Clear,360,2013-04-26 12:15:00
8:35 AM,52.0,40.1,64,30.41,10.0,North,5.8,-,N/A,,Clear,10,2013-04-26 12:35:00
8:55 AM,53.6,40.6,62,30.42,10.0,North,5.8,-,N/A,,Clear,10,2013-04-26 12:55:00
9:15 AM,55.8,41.5,59,30.42,10.0,North,5.8,-,N/A,,Clear,360,2013-04-26 13:15:00
9:35 AM,58.5,40.3,51,30.42,10.0,NNE,5.8,-,N/A,,Clear,30,2013-04-26 13:35:00
9:55 AM,60.3,38.8,45,30.43,10.0,NNE,9.2,-,N/A,,Clear,30,2013-04-26 13:55:00
10:15 AM,60.8,36.5,40,30.43,10.0,NE,8.1,-,N/A,,Clear,40,2013-04-26 14:15:00
10:35 AM,62.2,30.9,31,30.43,10.0,NE,6.9,17.3,N/A,,Clear,50,2013-04-26 14:35:00
10:55 AM,62.6,31.3,31,30.43,10.0,North,9.2,-,N/A,,Clear,10,2013-04-26 14:55:00
11:15 AM,63.1,32.0,31,30.43,10.0,NNE,10.4,-,N/A,,Clear,30,2013-04-26 15:15:00
11:35 AM,63.3,32.9,32,30.43,10.0,ENE,9.2,-,N/A,,Clear,60,2013-04-26 15:35:00
11:55 AM,64.6,33.6,32,30.42,10.0,NE,10.4,-,N/A,,Clear,50,2013-04-26 15:55:00
12:15 PM,64.4,30.6,28,30.41,10.0,NE,5.8,-,N/A,,Clear,40,2013-04-26 16:15:00
12:35 PM,64.9,32.9,30,30.40,10.0,Calm,Calm,-,N/A,,Clear,0,2013-04-26 16:35:00
12:55 PM,64.6,30.7,28,30.40,10.0,Calm,Calm,-,N/A,,Clear,0,2013-04-26 16:55:00
1:15 PM,65.5,32.4,29,30.40,10.0,East,5.8,-,N/A,,Clear,80,2013-04-26 17:15:00
1:35 PM,66.4,33.3,29,30.39,10.0,NE,5.8,-,N/A,,Clear,50,2013-04-26 17:35:00
1:55 PM,67.1,32.5,28,30.39,10.0,SSE,5.8,-,N/A,,Clear,150,2013-04-26 17:55:00
2:15 PM,67.1,31.8,27,30.40,10.0,Calm,Calm,-,N/A,,Clear,0,2013-04-26 18:15:00
2:35 PM,67.5,31.5,26,30.39,10.0,West,4.6,-,N/A,,Clear,270,2013-04-26 18:35:00
2:55 PM,68.2,30.6,25,30.39,10.0,Calm,Calm,-,N/A,,Clear,0,2013-04-26 18:55:00
3:15 PM,69.1,31.6,25,30.38,10.0,Calm,Calm,-,N/A,,Clear,0,2013-04-26 19:15:00
3:35 PM,68.7,32.5,26,30.37,10.0,West,5.8,-,N/A,,Clear,260,2013-04-26 19:35:00
3:55 PM,68.7,31.5,25,30.37,10.0,Calm,Calm,-,N/A,,Clear,0,2013-04-26 19:55:00
4:15 PM,68.7,33.4,27,30.36,10.0,NNE,5.8,-,N/A,,Clear,20,2013-04-26 20:15:00
4:35 PM,68.2,31.5,26,30.35,10.0,ENE,5.8,-,N/A,,Clear,60,2013-04-26 20:35:00
4:55 PM,68.9,31.3,25,30.35,10.0,Calm,Calm,-,N/A,,Clear,0,2013-04-26 20:55:00
5:15 PM,68.2,30.4,24,30.35,10.0,Calm,Calm,-,N/A,,Clear,0,2013-04-26 21:15:00
5:35 PM,68.0,29.8,24,30.34,10.0,Calm,Calm,-,N/A,,Clear,0,2013-04-26 21:35:00
5:55 PM,66.7,32.0,27,30.34,10.0,NE,4.6,-,N/A,,Clear,50,2013-04-26 21:55:00
6:15 PM,66.4,33.8,30,30.33,10.0,Calm,Calm,-,N/A,,Clear,0,2013-04-26 22:15:00
6:35 PM,65.3,36.9,35,30.34,10.0,ENE,4.6,-,N/A,,Clear,70,2013-04-26 22:35:00
6:55 PM,63.9,37.4,38,30.34,10.0,NE,3.5,-,N/A,,Clear,40,2013-04-26 22:55:00
7:15 PM,63.9,35.2,35,30.35,10.0,Calm,Calm,-,N/A,,Clear,0,2013-04-26 23:15:00
7:35 PM,62.4,38.1,41,30.35,10.0,Calm,Calm,-,N/A,,Clear,0,2013-04-26 23:35:00
7:55 PM,60.1,40.1,48,30.36,5.0,Calm,Calm,-,N/A,,Haze,0,2013-04-26 23:55:00
8:15 PM,59.4,43.3,55,30.36,10.0,Calm,Calm,-,N/A,,Clear,0,2013-04-27 00:15:00
8:35 PM,58.6,41.7,53,30.37,10.0,Calm,Calm,-,N/A,,Clear,0,2013-04-27 00:35:00
8:55 PM,57.6,42.8,58,30.37,10.0,Calm,Calm,-,N/A,,Clear,0,2013-04-27 00:55:00
9:15 PM,57.9,43.0,58,30.38,10.0,Calm,Calm,-,N/A,,Clear,0,2013-04-27 01:15:00
9:35 PM,56.8,41.0,55,30.38,10.0,Calm,Calm,-,N/A,,Clear,0,2013-04-27 01:35:00
9:55 PM,56.5,42.6,60,30.39,10.0,Calm,Calm,-,N/A,,Clear,0,2013-04-27 01:55:00
10:15 PM,55.4,42.4,62,30.38,10.0,Calm,Calm,-,N/A,,Clear,0,2013-04-27 02:15:00
10:35 PM,54.5,42.3,63,30.38,10.0,Calm,Calm,-,N/A,,Clear,0,2013-04-27 02:35:00
10:55 PM,53.1,42.8,68,30.38,10.0,Calm,Calm,-,N/A,,Clear,0,2013-04-27 02:55:00
11:15 PM,55.6,38.5,53,30.37,10.0,Calm,Calm,-,N/A,,Clear,0,2013-04-27 03:15:00
11:35 PM,54.0,39.9,59,30.37,10.0,Calm,Calm,-,N/A,,Clear,0,2013-04-27 03:35:00
11:55 PM,52.5,40.5,64,30.37,10.0,East,6.9,-,N/A,,Clear,90,2013-04-27 03:55:00